TimeCDT,TemperatureF,Dew PointF,Humidity,Sea Level PressureIn,VisibilityMPH,Wind Direction,Wind SpeedMPH,Gust SpeedMPH,PrecipitationIn,Events,Conditions,WindDirDegrees,DateUTC
12:51 AM,72.0,70.0,93,29.97,10.0,Calm,Calm,-,N/A,,Clear,0,2013-08-24 05:51:00
1:51 AM,71.1,70.0,96,29.98,10.0,SSE,3.5,-,N/A,,Mostly Cloudy,160,2013-08-24 06:51:00
2:51 AM,70.0,69.1,97,29.98,10.0,South,3.5,-,N/A,,Clear,180,2013-08-24 07:51:00
3:51 AM,70.0,69.1,97,29.99,10.0,Calm,Calm,-,N/A,,Clear,0,2013-08-24 08:51:00
4:51 AM,70.0,68.0,93,30.01,9.0,Calm,Calm,-,N/A,,Clear,0,2013-08-24 09:51:00
5:51 AM,69.1,68.0,96,30.02,10.0,Calm,Calm,-,N/A,,Clear,0,2013-08-24 10:51:00
6:51 AM,70.0,68.0,93,30.03,10.0,Calm,Calm,-,N/A,,Clear,0,2013-08-24 11:51:00
7:51 AM,69.1,66.9,93,30.04,10.0,SW,3.5,-,N/A,,Clear,230,2013-08-24 12:51:00
8:51 AM,72.0,66.9,84,30.06,10.0,Calm,Calm,-,N/A,,Clear,0,2013-08-24 13:51:00
9:51 AM,78.1,70.0,76,30.06,10.0,Calm,Calm,-,N/A,,Clear,0,2013-08-24 14:51:00
10:51 AM,82.9,71.1,67,30.06,10.0,SSW,4.6,-,N/A,,Clear,200,2013-08-24 15:51:00
11:51 AM,87.1,68.0,53,30.06,10.0,Calm,Calm,-,N/A,,Clear,0,2013-08-24 16:51:00
12:51 PM,89.1,66.9,48,30.04,10.0,South,5.8,-,N/A,,Partly Cloudy,190,2013-08-24 17:51:00
1:51 PM,90.0,66.9,46,30.02,10.0,NE,8.1,-,N/A,,Partly Cloudy,50,2013-08-24 18:51:00
2:51 PM,91.9,66.0,42,29.99,10.0,Calm,Calm,-,N/A,,Partly Cloudy,0,2013-08-24 19:51:00
3:51 PM,91.9,63.0,38,29.96,10.0,Variable,5.8,-,N/A,,Clear,0,2013-08-24 20:51:00
4:51 PM,93.9,63.0,36,29.94,10.0,ESE,16.1,-,N/A,,Clear,120,2013-08-24 21:51:00
5:51 PM,93.9,63.0,36,29.93,10.0,East,10.4,-,N/A,,Clear,90,2013-08-24 22:51:00
6:51 PM,90.0,64.9,43,29.94,10.0,East,6.9,-,0.00,,Mostly Cloudy,90,2013-08-24 23:51:00
7:51 PM,89.1,66.0,46,29.94,10.0,ESE,4.6,-,N/A,,Clear,120,2013-08-25 00:51:00
8:51 PM,84.9,66.0,53,29.96,10.0,South,3.5,-,N/A,,Clear,180,2013-08-25 01:51:00
9:51 PM,82.0,68.0,62,29.98,10.0,Calm,Calm,-,N/A,,Clear,0,2013-08-25 02:51:00
10:51 PM,80.1,68.0,67,30.01,10.0,Calm,Calm,-,N/A,,Clear,0,2013-08-25 03:51:00
11:51 PM,78.1,69.1,74,30.00,10.0,South,4.6,-,N/A,,Clear,190,2013-08-25 04:51:00